sensor_id;sensor_type;location;lat;lon;timestamp;temperature;humidity
33269;DHT22;19640;50.944;5.260;2024-03-06T00:00:56;6.90;99.90
33269;DHT22;19640;50.944;5.260;2024-03-06T00:03:22;7.10;99.90
33269;DHT22;19640;50.944;5.260;2024-03-06T00:05:48;7.10;99.90
33269;DHT22;19640;50.944;5.260;2024-03-06T00:08:14;7.20;99.90
33269;DHT22;19640;50.944;5.260;2024-03-06T00:10:41;7.20;99.90
33269;DHT22;19640;50.944;5.260;2024-03-06T00:13:07;7.40;99.90
33269;DHT22;19640;50.944;5.260;2024-03-06T00:15:33;7.60;99.90
33269;DHT22;19640;50.944;5.260;2024-03-06T00:17:59;7.50;99.90
33269;DHT22;19640;50.944;5.260;2024-03-06T00:20:25;7.20;99.90
33269;DHT22;19640;50.944;5.260;2024-03-06T00:22:50;6.50;99.90
33269;DHT22;19640;50.944;5.260;2024-03-06T00:25:16;6.00;99.90
33269;DHT22;19640;50.944;5.260;2024-03-06T00:27:42;5.70;99.90
33269;DHT22;19640;50.944;5.260;2024-03-06T00:30:08;5.50;99.90
33269;DHT22;19640;50.944;5.260;2024-03-06T00:32:33;5.20;99.90
33269;DHT22;19640;50.944;5.260;2024-03-06T00:34:59;5.30;99.90
33269;DHT22;19640;50.944;5.260;2024-03-06T00:37:25;5.40;99.90
33269;DHT22;19640;50.944;5.260;2024-03-06T00:39:50;5.60;99.90
33269;DHT22;19640;50.944;5.260;2024-03-06T00:42:16;5.90;99.90
33269;DHT22;19640;50.944;5.260;2024-03-06T00:44:41;6.00;99.90
33269;DHT22;19640;50.944;5.260;2024-03-06T00:47:07;5.90;99.90
33269;DHT22;19640;50.944;5.260;2024-03-06T00:49:33;5.70;99.90
33269;DHT22;19640;50.944;5.260;2024-03-06T00:51:58;5.40;99.90
33269;DHT22;19640;50.944;5.260;2024-03-06T00:54:24;5.00;99.90
33269;DHT22;19640;50.944;5.260;2024-03-06T00:56:50;4.80;99.90
33269;DHT22;19640;50.944;5.260;2024-03-06T00:59:15;5.10;99.90
33269;DHT22;19640;50.944;5.260;2024-03-06T01:01:41;5.20;99.90
33269;DHT22;19640;50.944;5.260;2024-03-06T01:04:07;5.40;99.90
33269;DHT22;19640;50.944;5.260;2024-03-06T01:06:32;5.10;99.90
33269;DHT22;19640;50.944;5.260;2024-03-06T01:08:58;5.10;99.90
33269;DHT22;19640;50.944;5.260;2024-03-06T01:11:25;5.10;99.90
33269;DHT22;19640;50.944;5.260;2024-03-06T01:13:52;5.00;99.90
33269;DHT22;19640;50.944;5.260;2024-03-06T01:16:18;4.80;99.90
33269;DHT22;19640;50.944;5.260;2024-03-06T01:18:43;4.60;99.90
33269;DHT22;19640;50.944;5.260;2024-03-06T01:21:09;4.60;99.90
33269;DHT22;19640;50.944;5.260;2024-03-06T01:23:35;4.90;99.90
33269;DHT22;19640;50.944;5.260;2024-03-06T01:26:01;4.90;99.90
33269;DHT22;19640;50.944;5.260;2024-03-06T01:28:27;4.90;99.90
33269;DHT22;19640;50.944;5.260;2024-03-06T01:30:52;4.70;99.90
33269;DHT22;19640;50.944;5.260;2024-03-06T01:33:18;4.60;99.90
33269;DHT22;19640;50.944;5.260;2024-03-06T01:35:43;4.60;99.90
33269;DHT22;19640;50.944;5.260;2024-03-06T01:38:09;4.50;99.90
33269;DHT22;19640;50.944;5.260;2024-03-06T01:40:35;4.30;99.90
33269;DHT22;19640;50.944;5.260;2024-03-06T01:43:01;4.40;99.90
33269;DHT22;19640;50.944;5.260;2024-03-06T01:45:27;4.30;99.90
33269;DHT22;19640;50.944;5.260;2024-03-06T01:47:52;4.60;99.90
33269;DHT22;19640;50.944;5.260;2024-03-06T01:50:18;4.60;99.90
33269;DHT22;19640;50.944;5.260;2024-03-06T01:52:45;4.20;99.90
33269;DHT22;19640;50.944;5.260;2024-03-06T01:55:12;3.90;99.90
33269;DHT22;19640;50.944;5.260;2024-03-06T01:57:39;3.60;99.90
33269;DHT22;19640;50.944;5.260;2024-03-06T02:00:06;3.70;99.90
33269;DHT22;19640;50.944;5.260;2024-03-06T02:02:34;4.10;99.90
33269;DHT22;19640;50.944;5.260;2024-03-06T02:04:59;4.30;99.90
33269;DHT22;19640;50.944;5.260;2024-03-06T02:07:28;4.40;99.90
33269;DHT22;19640;50.944;5.260;2024-03-06T02:09:57;4.40;99.90
33269;DHT22;19640;50.944;5.260;2024-03-06T02:12:23;4.30;99.90
33269;DHT22;19640;50.944;5.260;2024-03-06T02:14:49;4.40;99.90
33269;DHT22;19640;50.944;5.260;2024-03-06T02:17:15;4.30;99.90
33269;DHT22;19640;50.944;5.260;2024-03-06T02:19:42;4.30;99.90
33269;DHT22;19640;50.944;5.260;2024-03-06T02:22:08;4.00;99.90
33269;DHT22;19640;50.944;5.260;2024-03-06T02:24:34;3.90;99.90
33269;DHT22;19640;50.944;5.260;2024-03-06T02:27:00;3.60;99.90
33269;DHT22;19640;50.944;5.260;2024-03-06T02:29:26;3.20;99.90
33269;DHT22;19640;50.944;5.260;2024-03-06T02:31:51;3.10;99.90
33269;DHT22;19640;50.944;5.260;2024-03-06T02:34:17;3.20;99.90
33269;DHT22;19640;50.944;5.260;2024-03-06T02:36:43;3.30;99.90
33269;DHT22;19640;50.944;5.260;2024-03-06T02:39:09;3.40;99.90
33269;DHT22;19640;50.944;5.260;2024-03-06T02:41:36;3.50;99.90
33269;DHT22;19640;50.944;5.260;2024-03-06T02:44:02;3.60;99.90
33269;DHT22;19640;50.944;5.260;2024-03-06T02:46:28;3.60;99.90
33269;DHT22;19640;50.944;5.260;2024-03-06T02:48:54;3.70;99.90
33269;DHT22;19640;50.944;5.260;2024-03-06T02:51:20;3.70;99.90
33269;DHT22;19640;50.944;5.260;2024-03-06T02:53:46;3.70;99.90
33269;DHT22;19640;50.944;5.260;2024-03-06T02:56:18;3.70;99.90
33269;DHT22;19640;50.944;5.260;2024-03-06T02:58:43;3.50;99.90
33269;DHT22;19640;50.944;5.260;2024-03-06T03:01:09;3.50;99.90
33269;DHT22;19640;50.944;5.260;2024-03-06T03:03:35;3.40;99.90
33269;DHT22;19640;50.944;5.260;2024-03-06T03:06:01;3.70;99.90
33269;DHT22;19640;50.944;5.260;2024-03-06T03:08:27;3.90;99.90
33269;DHT22;19640;50.944;5.260;2024-03-06T03:10:53;4.00;99.90
33269;DHT22;19640;50.944;5.260;2024-03-06T03:13:18;4.30;99.90
33269;DHT22;19640;50.944;5.260;2024-03-06T03:15:44;4.40;99.90
33269;DHT22;19640;50.944;5.260;2024-03-06T03:18:10;4.50;99.90
33269;DHT22;19640;50.944;5.260;2024-03-06T03:20:35;4.50;99.90
33269;DHT22;19640;50.944;5.260;2024-03-06T03:23:02;4.60;99.90
33269;DHT22;19640;50.944;5.260;2024-03-06T03:25:27;4.60;99.90
33269;DHT22;19640;50.944;5.260;2024-03-06T03:27:53;4.50;99.90
33269;DHT22;19640;50.944;5.260;2024-03-06T03:30:19;3.80;99.90
33269;DHT22;19640;50.944;5.260;2024-03-06T03:32:48;3.10;99.90
33269;DHT22;19640;50.944;5.260;2024-03-06T03:35:14;2.70;99.90
33269;DHT22;19640;50.944;5.260;2024-03-06T03:37:39;2.70;99.90
33269;DHT22;19640;50.944;5.260;2024-03-06T03:40:06;3.00;99.90
33269;DHT22;19640;50.944;5.260;2024-03-06T03:42:32;3.20;99.90
33269;DHT22;19640;50.944;5.260;2024-03-06T03:44:58;3.50;99.90
33269;DHT22;19640;50.944;5.260;2024-03-06T03:47:23;3.60;99.90
33269;DHT22;19640;50.944;5.260;2024-03-06T03:49:49;3.70;99.90
33269;DHT22;19640;50.944;5.260;2024-03-06T03:52:15;3.80;99.90
33269;DHT22;19640;50.944;5.260;2024-03-06T03:54:41;3.90;99.90
33269;DHT22;19640;50.944;5.260;2024-03-06T03:57:07;3.60;99.90
33269;DHT22;19640;50.944;5.260;2024-03-06T03:59:34;3.30;99.90
33269;DHT22;19640;50.944;5.260;2024-03-06T04:01:59;3.00;99.90
33269;DHT22;19640;50.944;5.260;2024-03-06T04:04:25;3.00;99.90
33269;DHT22;19640;50.944;5.260;2024-03-06T04:06:51;2.90;99.90
33269;DHT22;19640;50.944;5.260;2024-03-06T04:09:16;2.70;99.90
33269;DHT22;19640;50.944;5.260;2024-03-06T04:11:42;2.70;99.90
33269;DHT22;19640;50.944;5.260;2024-03-06T04:14:07;2.50;99.90
33269;DHT22;19640;50.944;5.260;2024-03-06T04:16:34;2.40;99.90
33269;DHT22;19640;50.944;5.260;2024-03-06T04:18:59;2.30;99.90
33269;DHT22;19640;50.944;5.260;2024-03-06T04:21:26;2.20;99.90
33269;DHT22;19640;50.944;5.260;2024-03-06T04:23:52;2.20;99.90
33269;DHT22;19640;50.944;5.260;2024-03-06T04:26:17;2.20;99.90
33269;DHT22;19640;50.944;5.260;2024-03-06T04:28:43;2.20;99.90
33269;DHT22;19640;50.944;5.260;2024-03-06T04:31:09;2.30;99.90
33269;DHT22;19640;50.944;5.260;2024-03-06T04:33:35;2.30;99.90
33269;DHT22;19640;50.944;5.260;2024-03-06T04:36:04;2.00;99.90
33269;DHT22;19640;50.944;5.260;2024-03-06T04:38:34;1.90;99.90
33269;DHT22;19640;50.944;5.260;2024-03-06T04:41:00;2.00;99.90
33269;DHT22;19640;50.944;5.260;2024-03-06T04:43:25;1.90;99.90
33269;DHT22;19640;50.944;5.260;2024-03-06T04:45:51;1.70;99.90
33269;DHT22;19640;50.944;5.260;2024-03-06T04:48:16;1.90;99.90
33269;DHT22;19640;50.944;5.260;2024-03-06T04:50:42;1.90;99.90
33269;DHT22;19640;50.944;5.260;2024-03-06T04:53:08;2.10;99.90
33269;DHT22;19640;50.944;5.260;2024-03-06T04:55:34;2.20;99.90
33269;DHT22;19640;50.944;5.260;2024-03-06T04:58:02;2.10;99.90
33269;DHT22;19640;50.944;5.260;2024-03-06T05:00:28;2.30;99.90
33269;DHT22;19640;50.944;5.260;2024-03-06T05:02:54;2.40;99.90
33269;DHT22;19640;50.944;5.260;2024-03-06T05:05:21;2.50;99.90
33269;DHT22;19640;50.944;5.260;2024-03-06T05:07:48;2.40;99.90
33269;DHT22;19640;50.944;5.260;2024-03-06T05:10:14;2.20;99.90
33269;DHT22;19640;50.944;5.260;2024-03-06T05:12:41;2.20;99.90
33269;DHT22;19640;50.944;5.260;2024-03-06T05:15:07;2.20;99.90
33269;DHT22;19640;50.944;5.260;2024-03-06T05:17:34;2.20;99.90
33269;DHT22;19640;50.944;5.260;2024-03-06T05:19:59;2.30;99.90
33269;DHT22;19640;50.944;5.260;2024-03-06T05:22:25;2.50;99.90
33269;DHT22;19640;50.944;5.260;2024-03-06T05:24:52;2.80;99.90
33269;DHT22;19640;50.944;5.260;2024-03-06T05:27:18;3.00;99.90
33269;DHT22;19640;50.944;5.260;2024-03-06T05:29:44;3.10;99.90
33269;DHT22;19640;50.944;5.260;2024-03-06T05:32:10;3.20;99.90
33269;DHT22;19640;50.944;5.260;2024-03-06T05:34:35;3.00;99.90
33269;DHT22;19640;50.944;5.260;2024-03-06T05:37:02;3.00;99.90
33269;DHT22;19640;50.944;5.260;2024-03-06T05:39:30;3.20;99.90
33269;DHT22;19640;50.944;5.260;2024-03-06T05:41:59;3.10;99.90
33269;DHT22;19640;50.944;5.260;2024-03-06T05:44:25;3.10;99.90
33269;DHT22;19640;50.944;5.260;2024-03-06T05:46:52;3.20;99.90
33269;DHT22;19640;50.944;5.260;2024-03-06T05:49:17;3.10;99.90
33269;DHT22;19640;50.944;5.260;2024-03-06T05:51:43;3.10;99.90
33269;DHT22;19640;50.944;5.260;2024-03-06T05:54:08;2.90;99.90
33269;DHT22;19640;50.944;5.260;2024-03-06T05:56:35;2.70;99.90
33269;DHT22;19640;50.944;5.260;2024-03-06T05:59:00;2.70;99.90
33269;DHT22;19640;50.944;5.260;2024-03-06T06:01:30;2.80;99.90
33269;DHT22;19640;50.944;5.260;2024-03-06T06:03:56;3.00;99.90
33269;DHT22;19640;50.944;5.260;2024-03-06T06:06:22;3.20;99.90
33269;DHT22;19640;50.944;5.260;2024-03-06T06:08:48;3.40;99.90
33269;DHT22;19640;50.944;5.260;2024-03-06T06:11:14;3.60;99.90
33269;DHT22;19640;50.944;5.260;2024-03-06T06:13:40;3.80;99.90
33269;DHT22;19640;50.944;5.260;2024-03-06T06:16:06;3.60;99.90
33269;DHT22;19640;50.944;5.260;2024-03-06T06:18:32;3.10;99.90
33269;DHT22;19640;50.944;5.260;2024-03-06T06:20:58;2.90;99.90
33269;DHT22;19640;50.944;5.260;2024-03-06T06:23:24;2.80;99.90
33269;DHT22;19640;50.944;5.260;2024-03-06T06:25:50;2.80;99.90
33269;DHT22;19640;50.944;5.260;2024-03-06T06:28:15;2.90;99.90
33269;DHT22;19640;50.944;5.260;2024-03-06T06:30:41;3.00;99.90
33269;DHT22;19640;50.944;5.260;2024-03-06T06:33:07;2.90;99.90
33269;DHT22;19640;50.944;5.260;2024-03-06T06:35:34;3.00;99.90
33269;DHT22;19640;50.944;5.260;2024-03-06T06:38:02;3.10;99.90
33269;DHT22;19640;50.944;5.260;2024-03-06T06:40:30;3.00;99.90
33269;DHT22;19640;50.944;5.260;2024-03-06T06:42:56;2.90;99.90
33269;DHT22;19640;50.944;5.260;2024-03-06T06:45:22;3.00;99.90
33269;DHT22;19640;50.944;5.260;2024-03-06T06:47:48;3.10;99.90
33269;DHT22;19640;50.944;5.260;2024-03-06T06:50:15;3.20;99.90
33269;DHT22;19640;50.944;5.260;2024-03-06T06:52:41;3.40;99.90
33269;DHT22;19640;50.944;5.260;2024-03-06T06:55:07;3.60;99.90
33269;DHT22;19640;50.944;5.260;2024-03-06T06:57:37;3.20;99.90
33269;DHT22;19640;50.944;5.260;2024-03-06T07:00:05;3.00;99.90
33269;DHT22;19640;50.944;5.260;2024-03-06T07:02:38;3.00;99.90
33269;DHT22;19640;50.944;5.260;2024-03-06T07:05:07;2.80;99.90
33269;DHT22;19640;50.944;5.260;2024-03-06T07:07:34;2.80;99.90
33269;DHT22;19640;50.944;5.260;2024-03-06T07:10:01;2.70;99.90
33269;DHT22;19640;50.944;5.260;2024-03-06T07:12:27;2.70;99.90
33269;DHT22;19640;50.944;5.260;2024-03-06T07:14:53;2.60;99.90
33269;DHT22;19640;50.944;5.260;2024-03-06T07:17:19;2.60;99.90
33269;DHT22;19640;50.944;5.260;2024-03-06T07:19:44;2.80;99.90
33269;DHT22;19640;50.944;5.260;2024-03-06T07:22:10;3.10;99.90
33269;DHT22;19640;50.944;5.260;2024-03-06T07:24:36;3.20;99.90
33269;DHT22;19640;50.944;5.260;2024-03-06T07:27:02;3.30;99.90
33269;DHT22;19640;50.944;5.260;2024-03-06T07:29:28;3.30;99.90
33269;DHT22;19640;50.944;5.260;2024-03-06T07:31:54;3.30;99.90
33269;DHT22;19640;50.944;5.260;2024-03-06T07:34:20;3.60;99.90
33269;DHT22;19640;50.944;5.260;2024-03-06T07:36:49;3.80;99.90
33269;DHT22;19640;50.944;5.260;2024-03-06T07:39:19;3.90;99.90
33269;DHT22;19640;50.944;5.260;2024-03-06T07:41:46;4.70;99.90
33269;DHT22;19640;50.944;5.260;2024-03-06T07:44:11;5.50;99.90
33269;DHT22;19640;50.944;5.260;2024-03-06T07:46:37;5.70;99.90
33269;DHT22;19640;50.944;5.260;2024-03-06T07:49:03;6.10;99.90
33269;DHT22;19640;50.944;5.260;2024-03-06T07:51:30;6.50;99.90
33269;DHT22;19640;50.944;5.260;2024-03-06T07:53:56;7.30;99.90
33269;DHT22;19640;50.944;5.260;2024-03-06T07:56:23;7.60;99.90
33269;DHT22;19640;50.944;5.260;2024-03-06T07:58:49;7.80;99.90
33269;DHT22;19640;50.944;5.260;2024-03-06T08:01:15;7.00;99.90
33269;DHT22;19640;50.944;5.260;2024-03-06T08:03:41;6.30;99.90
33269;DHT22;19640;50.944;5.260;2024-03-06T08:06:08;6.00;99.90
33269;DHT22;19640;50.944;5.260;2024-03-06T08:08:39;6.00;99.90
33269;DHT22;19640;50.944;5.260;2024-03-06T08:11:05;6.10;99.90
33269;DHT22;19640;50.944;5.260;2024-03-06T08:13:31;5.80;99.90
33269;DHT22;19640;50.944;5.260;2024-03-06T08:15:56;5.90;99.90
33269;DHT22;19640;50.944;5.260;2024-03-06T08:18:22;5.80;99.90
33269;DHT22;19640;50.944;5.260;2024-03-06T08:20:48;5.90;99.90
33269;DHT22;19640;50.944;5.260;2024-03-06T08:23:14;5.90;99.90
33269;DHT22;19640;50.944;5.260;2024-03-06T08:25:39;5.90;99.90
33269;DHT22;19640;50.944;5.260;2024-03-06T08:28:05;6.00;99.90
33269;DHT22;19640;50.944;5.260;2024-03-06T08:30:31;6.00;99.90
33269;DHT22;19640;50.944;5.260;2024-03-06T08:32:58;6.20;99.90
33269;DHT22;19640;50.944;5.260;2024-03-06T08:35:23;6.40;99.90
33269;DHT22;19640;50.944;5.260;2024-03-06T08:37:50;6.40;99.90
33269;DHT22;19640;50.944;5.260;2024-03-06T08:40:17;6.60;99.90
33269;DHT22;19640;50.944;5.260;2024-03-06T08:42:49;6.70;99.90
33269;DHT22;19640;50.944;5.260;2024-03-06T08:45:18;7.00;99.90
33269;DHT22;19640;50.944;5.260;2024-03-06T08:47:47;6.90;99.90
33269;DHT22;19640;50.944;5.260;2024-03-06T08:50:14;7.10;99.90
33269;DHT22;19640;50.944;5.260;2024-03-06T08:52:40;7.30;99.90
33269;DHT22;19640;50.944;5.260;2024-03-06T08:55:07;7.10;99.90
33269;DHT22;19640;50.944;5.260;2024-03-06T08:57:33;7.50;99.90
33269;DHT22;19640;50.944;5.260;2024-03-06T08:59:59;7.40;99.90
33269;DHT22;19640;50.944;5.260;2024-03-06T09:02:25;7.50;99.90
33269;DHT22;19640;50.944;5.260;2024-03-06T09:04:52;7.40;99.90
33269;DHT22;19640;50.944;5.260;2024-03-06T09:07:18;7.60;99.90
33269;DHT22;19640;50.944;5.260;2024-03-06T09:09:44;7.80;99.90
33269;DHT22;19640;50.944;5.260;2024-03-06T09:12:10;8.00;99.90
33269;DHT22;19640;50.944;5.260;2024-03-06T09:14:39;8.10;99.90
33269;DHT22;19640;50.944;5.260;2024-03-06T09:17:06;7.90;99.90
33269;DHT22;19640;50.944;5.260;2024-03-06T09:19:32;8.10;99.90
33269;DHT22;19640;50.944;5.260;2024-03-06T09:21:59;8.30;99.90
33269;DHT22;19640;50.944;5.260;2024-03-06T09:24:25;8.40;99.90
33269;DHT22;19640;50.944;5.260;2024-03-06T09:26:52;8.30;99.90
33269;DHT22;19640;50.944;5.260;2024-03-06T09:29:18;8.40;99.90
33269;DHT22;19640;50.944;5.260;2024-03-06T09:31:43;8.50;99.90
33269;DHT22;19640;50.944;5.260;2024-03-06T09:34:11;8.60;99.90
33269;DHT22;19640;50.944;5.260;2024-03-06T09:36:45;8.70;99.90
33269;DHT22;19640;50.944;5.260;2024-03-06T09:39:14;8.90;99.90
33269;DHT22;19640;50.944;5.260;2024-03-06T09:41:45;9.00;99.90
33269;DHT22;19640;50.944;5.260;2024-03-06T09:44:12;9.10;99.90
33269;DHT22;19640;50.944;5.260;2024-03-06T09:46:45;9.30;99.90
33269;DHT22;19640;50.944;5.260;2024-03-06T09:49:12;9.30;99.90
33269;DHT22;19640;50.944;5.260;2024-03-06T09:51:51;9.40;99.90
33269;DHT22;19640;50.944;5.260;2024-03-06T09:54:20;9.60;99.90
33269;DHT22;19640;50.944;5.260;2024-03-06T09:56:47;9.70;99.90
33269;DHT22;19640;50.944;5.260;2024-03-06T09:59:13;10.00;99.90
33269;DHT22;19640;50.944;5.260;2024-03-06T10:01:53;9.80;99.90
33269;DHT22;19640;50.944;5.260;2024-03-06T10:04:20;10.10;99.90
33269;DHT22;19640;50.944;5.260;2024-03-06T10:06:47;10.30;99.90
33269;DHT22;19640;50.944;5.260;2024-03-06T10:09:12;9.90;99.90
33269;DHT22;19640;50.944;5.260;2024-03-06T10:11:41;9.70;99.90
33269;DHT22;19640;50.944;5.260;2024-03-06T10:14:08;9.70;99.90
33269;DHT22;19640;50.944;5.260;2024-03-06T10:16:35;9.70;99.90
33269;DHT22;19640;50.944;5.260;2024-03-06T10:19:17;9.70;99.90
33269;DHT22;19640;50.944;5.260;2024-03-06T10:21:46;10.10;99.90
33269;DHT22;19640;50.944;5.260;2024-03-06T10:24:24;10.10;99.90
33269;DHT22;19640;50.944;5.260;2024-03-06T10:26:51;10.00;99.90
33269;DHT22;19640;50.944;5.260;2024-03-06T10:29:21;10.00;99.90
33269;DHT22;19640;50.944;5.260;2024-03-06T10:31:57;10.20;99.90
33269;DHT22;19640;50.944;5.260;2024-03-06T10:34:28;10.20;99.90
33269;DHT22;19640;50.944;5.260;2024-03-06T10:37:01;10.40;99.90
33269;DHT22;19640;50.944;5.260;2024-03-06T10:39:30;10.60;99.90
33269;DHT22;19640;50.944;5.260;2024-03-06T10:42:02;10.60;99.90
33269;DHT22;19640;50.944;5.260;2024-03-06T10:44:28;10.60;99.90
33269;DHT22;19640;50.944;5.260;2024-03-06T10:46:59;10.70;99.90
33269;DHT22;19640;50.944;5.260;2024-03-06T10:49:26;10.90;99.90
33269;DHT22;19640;50.944;5.260;2024-03-06T10:51:58;10.90;99.90
33269;DHT22;19640;50.944;5.260;2024-03-06T10:54:27;10.70;99.90
33269;DHT22;19640;50.944;5.260;2024-03-06T10:56:55;10.80;99.90
33269;DHT22;19640;50.944;5.260;2024-03-06T10:59:24;10.90;99.90
33269;DHT22;19640;50.944;5.260;2024-03-06T11:01:54;11.20;99.90
33269;DHT22;19640;50.944;5.260;2024-03-06T11:04:30;11.20;99.90
33269;DHT22;19640;50.944;5.260;2024-03-06T11:07:01;10.90;99.90
33269;DHT22;19640;50.944;5.260;2024-03-06T11:09:37;10.80;99.90
33269;DHT22;19640;50.944;5.260;2024-03-06T11:12:06;11.00;99.90
33269;DHT22;19640;50.944;5.260;2024-03-06T11:14:38;11.20;99.90
33269;DHT22;19640;50.944;5.260;2024-03-06T11:17:09;11.30;99.90
33269;DHT22;19640;50.944;5.260;2024-03-06T11:28:30;11.20;99.90
33269;DHT22;19640;50.944;5.260;2024-03-06T11:30:57;11.40;99.90
33269;DHT22;19640;50.944;5.260;2024-03-06T11:33:28;11.50;99.90
33269;DHT22;19640;50.944;5.260;2024-03-06T11:36:17;11.60;99.90
33269;DHT22;19640;50.944;5.260;2024-03-06T11:39:07;11.70;99.90
33269;DHT22;19640;50.944;5.260;2024-03-06T11:44:16;11.60;99.90
33269;DHT22;19640;50.944;5.260;2024-03-06T11:46:46;11.70;99.90
33269;DHT22;19640;50.944;5.260;2024-03-06T11:49:22;11.40;99.90
33269;DHT22;19640;50.944;5.260;2024-03-06T11:51:52;11.30;99.90
33269;DHT22;19640;50.944;5.260;2024-03-06T11:54:18;11.40;99.90
33269;DHT22;19640;50.944;5.260;2024-03-06T11:56:49;11.50;99.90
33269;DHT22;19640;50.944;5.260;2024-03-06T11:59:24;11.60;99.90
33269;DHT22;19640;50.944;5.260;2024-03-06T12:01:56;11.60;99.90
33269;DHT22;19640;50.944;5.260;2024-03-06T12:04:21;11.40;99.90
33269;DHT22;19640;50.944;5.260;2024-03-06T12:06:47;11.20;99.90
33269;DHT22;19640;50.944;5.260;2024-03-06T12:09:14;11.30;99.90
33269;DHT22;19640;50.944;5.260;2024-03-06T12:11:41;11.50;99.90
33269;DHT22;19640;50.944;5.260;2024-03-06T12:14:19;11.90;99.90
33269;DHT22;19640;50.944;5.260;2024-03-06T12:16:58;11.80;99.90
33269;DHT22;19640;50.944;5.260;2024-03-06T12:19:28;11.80;99.90
33269;DHT22;19640;50.944;5.260;2024-03-06T12:21:55;11.70;99.90
33269;DHT22;19640;50.944;5.260;2024-03-06T12:24:24;11.90;99.90
33269;DHT22;19640;50.944;5.260;2024-03-06T12:27:00;11.80;99.90
33269;DHT22;19640;50.944;5.260;2024-03-06T12:29:31;11.90;99.90
33269;DHT22;19640;50.944;5.260;2024-03-06T12:32:03;12.20;99.90
33269;DHT22;19640;50.944;5.260;2024-03-06T12:34:29;12.30;99.90
33269;DHT22;19640;50.944;5.260;2024-03-06T12:36:56;12.20;99.90
33269;DHT22;19640;50.944;5.260;2024-03-06T12:39:23;12.30;99.90
33269;DHT22;19640;50.944;5.260;2024-03-06T12:41:50;12.30;99.90
33269;DHT22;19640;50.944;5.260;2024-03-06T12:44:16;12.20;99.90
33269;DHT22;19640;50.944;5.260;2024-03-06T12:46:42;12.40;99.90
33269;DHT22;19640;50.944;5.260;2024-03-06T12:49:07;12.50;99.90
33269;DHT22;19640;50.944;5.260;2024-03-06T12:51:33;12.40;99.90
33269;DHT22;19640;50.944;5.260;2024-03-06T12:53:59;12.20;99.90
33269;DHT22;19640;50.944;5.260;2024-03-06T12:56:26;12.30;99.90
33269;DHT22;19640;50.944;5.260;2024-03-06T12:58:52;12.50;99.90
33269;DHT22;19640;50.944;5.260;2024-03-06T13:01:17;12.30;99.90
33269;DHT22;19640;50.944;5.260;2024-03-06T13:03:43;12.30;99.90
33269;DHT22;19640;50.944;5.260;2024-03-06T13:06:09;12.50;99.90
33269;DHT22;19640;50.944;5.260;2024-03-06T13:08:35;12.20;99.90
33269;DHT22;19640;50.944;5.260;2024-03-06T13:11:01;12.30;99.90
33269;DHT22;19640;50.944;5.260;2024-03-06T13:13:27;12.50;99.90
33269;DHT22;19640;50.944;5.260;2024-03-06T13:15:55;12.50;99.90
33269;DHT22;19640;50.944;5.260;2024-03-06T13:18:20;12.50;99.90
33269;DHT22;19640;50.944;5.260;2024-03-06T13:20:46;12.40;99.90
33269;DHT22;19640;50.944;5.260;2024-03-06T13:23:12;12.60;99.90
33269;DHT22;19640;50.944;5.260;2024-03-06T13:25:38;12.60;99.90
33269;DHT22;19640;50.944;5.260;2024-03-06T13:28:04;12.60;99.90
33269;DHT22;19640;50.944;5.260;2024-03-06T13:30:31;12.60;99.90
33269;DHT22;19640;50.944;5.260;2024-03-06T13:32:57;12.40;99.90
33269;DHT22;19640;50.944;5.260;2024-03-06T13:35:23;12.40;99.90
33269;DHT22;19640;50.944;5.260;2024-03-06T13:37:49;12.40;99.90
33269;DHT22;19640;50.944;5.260;2024-03-06T13:40:14;12.60;99.90
33269;DHT22;19640;50.944;5.260;2024-03-06T13:42:40;12.60;99.90
33269;DHT22;19640;50.944;5.260;2024-03-06T13:45:07;12.60;99.90
33269;DHT22;19640;50.944;5.260;2024-03-06T13:47:42;12.70;99.90
33269;DHT22;19640;50.944;5.260;2024-03-06T13:50:09;12.50;99.90
33269;DHT22;19640;50.944;5.260;2024-03-06T13:52:36;12.60;99.90
33269;DHT22;19640;50.944;5.260;2024-03-06T13:55:01;12.80;99.90
33269;DHT22;19640;50.944;5.260;2024-03-06T13:57:33;12.80;99.90
33269;DHT22;19640;50.944;5.260;2024-03-06T14:00:00;12.90;99.90
33269;DHT22;19640;50.944;5.260;2024-03-06T14:02:26;13.20;99.90
33269;DHT22;19640;50.944;5.260;2024-03-06T14:04:52;13.30;99.90
33269;DHT22;19640;50.944;5.260;2024-03-06T14:07:18;13.40;99.90
33269;DHT22;19640;50.944;5.260;2024-03-06T14:09:43;13.30;99.90
33269;DHT22;19640;50.944;5.260;2024-03-06T14:12:09;13.20;99.90
33269;DHT22;19640;50.944;5.260;2024-03-06T14:14:35;13.10;99.90
33269;DHT22;19640;50.944;5.260;2024-03-06T14:17:00;13.20;99.90
33269;DHT22;19640;50.944;5.260;2024-03-06T14:19:26;13.50;99.90
33269;DHT22;19640;50.944;5.260;2024-03-06T14:21:52;13.60;99.90
33269;DHT22;19640;50.944;5.260;2024-03-06T14:24:18;13.40;99.90
33269;DHT22;19640;50.944;5.260;2024-03-06T14:26:46;13.30;99.90
33269;DHT22;19640;50.944;5.260;2024-03-06T14:29:12;13.40;99.90
33269;DHT22;19640;50.944;5.260;2024-03-06T14:31:39;13.60;99.90
33269;DHT22;19640;50.944;5.260;2024-03-06T14:34:05;13.50;99.90
33269;DHT22;19640;50.944;5.260;2024-03-06T14:36:30;13.10;99.90
33269;DHT22;19640;50.944;5.260;2024-03-06T14:38:56;12.90;99.90
33269;DHT22;19640;50.944;5.260;2024-03-06T14:41:22;13.10;99.90
33269;DHT22;19640;50.944;5.260;2024-03-06T14:43:48;13.20;99.90
33269;DHT22;19640;50.944;5.260;2024-03-06T14:46:13;13.30;99.90
33269;DHT22;19640;50.944;5.260;2024-03-06T14:48:39;13.00;99.50
33269;DHT22;19640;50.944;5.260;2024-03-06T14:51:06;12.70;99.20
33269;DHT22;19640;50.944;5.260;2024-03-06T14:53:32;12.70;99.20
33269;DHT22;19640;50.944;5.260;2024-03-06T14:55:58;13.00;99.90
33269;DHT22;19640;50.944;5.260;2024-03-06T14:58:24;13.20;99.90
33269;DHT22;19640;50.944;5.260;2024-03-06T15:00:50;13.50;99.90
33269;DHT22;19640;50.944;5.260;2024-03-06T15:03:19;13.90;99.90
33269;DHT22;19640;50.944;5.260;2024-03-06T15:05:44;14.20;99.90
33269;DHT22;19640;50.944;5.260;2024-03-06T15:08:13;13.60;99.50
33269;DHT22;19640;50.944;5.260;2024-03-06T15:10:39;13.60;99.90
33269;DHT22;19640;50.944;5.260;2024-03-06T15:13:05;13.70;98.30
33269;DHT22;19640;50.944;5.260;2024-03-06T15:15:31;13.70;97.80
33269;DHT22;19640;50.944;5.260;2024-03-06T15:17:57;14.10;98.20
33269;DHT22;19640;50.944;5.260;2024-03-06T15:20:23;13.80;95.90
33269;DHT22;19640;50.944;5.260;2024-03-06T15:22:49;13.70;98.00
33269;DHT22;19640;50.944;5.260;2024-03-06T15:25:15;13.90;96.40
33269;DHT22;19640;50.944;5.260;2024-03-06T15:27:42;13.70;95.80
33269;DHT22;19640;50.944;5.260;2024-03-06T15:30:09;13.70;96.80
33269;DHT22;19640;50.944;5.260;2024-03-06T15:32:35;13.60;96.10
33269;DHT22;19640;50.944;5.260;2024-03-06T15:35:01;13.30;96.50
33269;DHT22;19640;50.944;5.260;2024-03-06T15:37:29;13.00;97.50
33269;DHT22;19640;50.944;5.260;2024-03-06T15:39:56;12.70;97.30
33269;DHT22;19640;50.944;5.260;2024-03-06T15:42:23;12.70;99.20
33269;DHT22;19640;50.944;5.260;2024-03-06T15:44:52;12.60;98.50
33269;DHT22;19640;50.944;5.260;2024-03-06T15:47:18;12.70;99.90
33269;DHT22;19640;50.944;5.260;2024-03-06T15:49:45;12.80;99.80